Terminal Aerodrome Forecast
Issued by NWS

Home | Current Version | Previous Version | Text Only | Print | Product List | Glossary On
Versions: 1 2 3 4 5 6 7 8 9 10 11 12 13 14 15 16 17 18 19 20 21 22 23 24 25 26 27
000
FTUS41 KOKX 042341
TAFSWF
TAF
KSWF 042341Z 0500/0606 27011KT P6SM FEW050
     FM050200 27006KT P6SM SCT250
     FM050500 VRB03KT P6SM SCT250
     FM051300 29010KT P6SM SCT050
     FM051700 29014G21KT P6SM SCT050
     FM052200 29011KT P6SM FEW050
     FM060000 29005KT P6SM SCT250
      AMD NOT SKED=

USA.gov is the U.S. government's official web portal to all federal, state and local government web resources and services.